Currently 82°F in De Luz, California, USA
82°F
82°F / 62°F
calm
0.00"
Saturday, January 16, 2021 10:46 AM PST

De Luz, California Weather Summary
Last 36 Hours

Temperature Winds Hourly Humidity Dewpoint
Time Report Norm Report Norm Max Gusts Precip. Rpt. Norm Rpt. Norm Pressure
1,2Sat 10:46 AM  81.6°F  63°F  calm  1 mph  none  0.00"  16%  46%  29°F  41°F  28.70"
Sat 10:00 AM  77.4°F  60°F  1 mph E  1 mph  5 mph  0.00"  16%  49%  26°F  40°F  28.70"
Sat 09:00 AM  71.5°F  56°F  1 mph E  calm  5 mph  0.00"  16%  53%  21°F  39°F  28.71"
Sat 08:00 AM  69.1°F  53°F  1 mph SE  calm  3 mph  0.00"  15%  56%  18°F  37°F  28.70"
Sat 07:00 AM  66.8°F  51°F  calm  calm  6 mph  0.00"  16%  56%  17°F  36°F  28.70"
Sat 06:00 AM  63.1°F  52°F  1 mph E  calm  3 mph  0.00"  16%  56%  14°F  36°F  28.70"
3Sat 05:50 AM  62.0°F  52°F  1 mph E  calm  1 mph  ----  17%  56%  15°F  36°F  28.70"
Sat 05:00 AM  62.9°F  52°F  calm  calm  1 mph  0.00"  14%  56%  11°F  36°F  28.69"
Sat 04:00 AM  63.9°F  52°F  calm  calm  none  0.00"  16%  57%  15°F  37°F  28.68"
Sat 03:00 AM  66.8°F  52°F  calm  calm  3 mph  0.00"  16%  56%  17°F  37°F  28.70"
Sat 02:00 AM  68.4°F  53°F  1 mph E  calm  3 mph  0.00"  14%  57%  15°F  37°F  28.71"
Sat 01:00 AM  68.4°F  53°F  calm  calm  1 mph  0.00"  14%  57%  15°F  37°F  28.70"
Sat 12:00 AM  68.3°F  53°F  calm  calm  3 mph  0.00"  15%  58%  17°F  38°F  28.70"
Fri 11:00 PM  70.4°F  53°F  calm  calm  2 mph  0.00"  13%  58%  15°F  38°F  28.73"
Fri 10:00 PM  69.6°F  54°F  calm  calm  2 mph  0.00"  13%  58%  14°F  39°F  28.75"
Fri 09:00 PM  70.9°F  54°F  calm  calm  2 mph  0.00"  14%  59%  17°F  39°F  28.76"
Fri 08:00 PM  72.3°F  54°F  calm  calm  1 mph  0.00"  13%  59%  17°F  40°F  28.76"
Fri 07:00 PM  73.9°F  55°F  calm  calm  2 mph  0.00"  12%  59%  16°F  41°F  28.76"
Fri 06:00 PM  76.3°F  57°F  calm  calm  2 mph  0.00"  12%  58%  18°F  41°F  28.76"
Fri 05:00 PM  82.2°F  60°F  calm  1 mph  none  0.00"  12%  53%  22°F  42°F  28.74"
Fri 04:00 PM  88.0°F  64°F  calm  1 mph  1 mph  0.00"  12%  47%  27°F  43°F  28.74"
Fri 03:00 PM  87.6°F  66°F  calm  1 mph  3 mph  0.00"  11%  43%  25°F  42°F  28.74"
Fri 02:00 PM  88.2°F  67°F  calm  1 mph  3 mph  0.00"  10%  40%  23°F  41°F  28.76"
Fri 01:00 PM  86.7°F  66°F  calm  1 mph  2 mph  0.00"  11%  40%  24°F  41°F  28.77"
Fri 12:00 PM  84.0°F  65°F  calm  1 mph  3 mph  0.00"  12%  42%  24°F  41°F  28.81"
Fri 11:00 AM  81.4°F  63°F  1 mph W  1 mph  2 mph  0.00"  13%  45%  24°F  40°F  28.85"
Fri 10:00 AM  77.6°F  60°F  calm  1 mph  5 mph  0.00"  15%  49%  24°F  40°F  28.89"
Fri 09:00 AM  71.6°F  56°F  calm  calm  3 mph  0.00"  19%  53%  25°F  39°F  28.89"
Fri 08:00 AM  66.9°F  53°F  calm  calm  5 mph  0.00"  19%  57%  22°F  37°F  28.89"
Fri 07:00 AM  65.8°F  51°F  calm  calm  1 mph  0.00"  19%  57%  21°F  36°F  28.87"
Fri 06:00 AM  66.6°F  51°F  calm  calm  2 mph  0.00"  19%  57%  21°F  36°F  28.86"
Fri 05:00 AM  67.9°F  52°F  1 mph E  calm  2 mph  0.00"  18%  57%  21°F  36°F  28.84"
Fri 04:00 AM  67.3°F  52°F  calm  calm  2 mph  0.00"  18%  57%  21°F  36°F  28.84"
Fri 03:00 AM  67.6°F  52°F  calm  calm  5 mph  0.00"  18%  57%  21°F  37°F  28.83"
Fri 02:00 AM  67.4°F  52°F  calm  calm  3 mph  0.00"  17%  57%  19°F  37°F  28.85"
Fri 01:00 AM  67.6°F  53°F  calm  calm  1 mph  0.00"  17%  58%  19°F  37°F  28.86"
Fri 12:00 AM  68.3°F  53°F  calm  calm  none  0.00"  15%  58%  17°F  38°F  28.87"
Thu 11:00 PM  69.4°F  53°F  calm  calm  3 mph  0.00"  14%  58%  16°F  38°F  28.87"

  1. Current weather data. No green row appears if the current weather data is also the high or low for the current day.
  2. High temperature for the current day.
  3. Low temperature for the current day.

The De Luz, California weather pages are a service of WeatherCurrents. De Luz is located west of the Temecula Valley and north of Fallbrook, on the Santa Rosa Plateau, in southwestern Riverside County, California.
Copyright ©2021  WeatherCurrents. All rights reserved. - Submit questions and comments - Privacy Policy

This page automatically refreshes every 10 minutes.